sensor_id;sensor_type;location;lat;lon;timestamp;temperature;humidity
70851;DHT22;58475;49.662;9.636;2022-11-30T00:01:49;5.83;99.99
70851;DHT22;58475;49.662;9.636;2022-11-30T00:04:15;5.85;99.99
70851;DHT22;58475;49.662;9.636;2022-11-30T00:06:41;5.79;99.86
70851;DHT22;58475;49.662;9.636;2022-11-30T00:09:06;5.85;99.85
70851;DHT22;58475;49.662;9.636;2022-11-30T00:11:32;5.93;99.51
70851;DHT22;58475;49.662;9.636;2022-11-30T00:13:58;5.92;99.44
70851;DHT22;58475;49.662;9.636;2022-11-30T00:16:24;6.01;98.86
70851;DHT22;58475;49.662;9.636;2022-11-30T00:18:51;5.92;98.89
70851;DHT22;58475;49.662;9.636;2022-11-30T00:21:17;5.89;99.04
70851;DHT22;58475;49.662;9.636;2022-11-30T00:23:44;5.88;98.78
70851;DHT22;58475;49.662;9.636;2022-11-30T00:26:15;5.91;99.12
70851;DHT22;58475;49.662;9.636;2022-11-30T00:28:41;5.81;99.32
70851;DHT22;58475;49.662;9.636;2022-11-30T00:31:10;5.83;99.35
70851;DHT22;58475;49.662;9.636;2022-11-30T00:33:37;5.81;99.33
70851;DHT22;58475;49.662;9.636;2022-11-30T00:36:05;5.86;99.27
70851;DHT22;58475;49.662;9.636;2022-11-30T00:38:32;5.99;98.75
70851;DHT22;58475;49.662;9.636;2022-11-30T00:40:59;6.02;98.71
70851;DHT22;58475;49.662;9.636;2022-11-30T00:43:25;6.05;98.38
70851;DHT22;58475;49.662;9.636;2022-11-30T00:45:51;5.95;98.71
70851;DHT22;58475;49.662;9.636;2022-11-30T00:48:17;5.91;98.98
70851;DHT22;58475;49.662;9.636;2022-11-30T00:50:42;5.82;99.29
70851;DHT22;58475;49.662;9.636;2022-11-30T00:53:08;5.79;99.47
70851;DHT22;58475;49.662;9.636;2022-11-30T00:55:34;5.79;99.31
70851;DHT22;58475;49.662;9.636;2022-11-30T00:58:00;5.78;99.64
70851;DHT22;58475;49.662;9.636;2022-11-30T01:00:26;5.76;99.36
70851;DHT22;58475;49.662;9.636;2022-11-30T01:02:56;5.76;99.44
70851;DHT22;58475;49.662;9.636;2022-11-30T01:05:24;5.76;99.51
70851;DHT22;58475;49.662;9.636;2022-11-30T01:07:50;5.76;99.41
70851;DHT22;58475;49.662;9.636;2022-11-30T01:10:16;5.78;99.38
70851;DHT22;58475;49.662;9.636;2022-11-30T01:12:42;5.76;99.59
70851;DHT22;58475;49.662;9.636;2022-11-30T01:15:08;5.75;99.63
70851;DHT22;58475;49.662;9.636;2022-11-30T01:17:33;5.82;99.30
70851;DHT22;58475;49.662;9.636;2022-11-30T01:19:59;5.88;99.31
70851;DHT22;58475;49.662;9.636;2022-11-30T01:22:24;5.85;99.49
70851;DHT22;58475;49.662;9.636;2022-11-30T01:24:56;5.82;99.74
70851;DHT22;58475;49.662;9.636;2022-11-30T01:27:22;5.88;99.60
70851;DHT22;58475;49.662;9.636;2022-11-30T01:29:47;5.89;99.24
70851;DHT22;58475;49.662;9.636;2022-11-30T01:32:12;5.82;99.49
70851;DHT22;58475;49.662;9.636;2022-11-30T01:34:38;5.78;99.63
70851;DHT22;58475;49.662;9.636;2022-11-30T01:37:03;5.81;99.71
70851;DHT22;58475;49.662;9.636;2022-11-30T01:39:29;5.76;99.87
70851;DHT22;58475;49.662;9.636;2022-11-30T01:41:54;5.74;99.82
70851;DHT22;58475;49.662;9.636;2022-11-30T01:49:41;5.76;99.79
70851;DHT22;58475;49.662;9.636;2022-11-30T01:52:12;5.75;99.99
70851;DHT22;58475;49.662;9.636;2022-11-30T01:54:43;5.83;99.86
70851;DHT22;58475;49.662;9.636;2022-11-30T01:57:14;5.86;99.73
70851;DHT22;58475;49.662;9.636;2022-11-30T01:59:42;5.89;99.70
70851;DHT22;58475;49.662;9.636;2022-11-30T02:02:08;5.81;99.95
70851;DHT22;58475;49.662;9.636;2022-11-30T02:04:36;5.75;99.99
70851;DHT22;58475;49.662;9.636;2022-11-30T02:07:04;5.79;99.99
70851;DHT22;58475;49.662;9.636;2022-11-30T02:09:30;5.76;99.99
70851;DHT22;58475;49.662;9.636;2022-11-30T02:11:59;5.74;99.98
70851;DHT22;58475;49.662;9.636;2022-11-30T02:14:30;5.76;99.99
70851;DHT22;58475;49.662;9.636;2022-11-30T02:31:18;5.76;99.71
70851;DHT22;58475;49.662;9.636;2022-11-30T02:33:47;5.76;99.61
70851;DHT22;58475;49.662;9.636;2022-11-30T02:36:14;5.78;99.81
70851;DHT22;58475;49.662;9.636;2022-11-30T02:38:41;5.74;99.98
70851;DHT22;58475;49.662;9.636;2022-11-30T02:41:06;5.75;99.99
70851;DHT22;58475;49.662;9.636;2022-11-30T02:43:32;5.72;99.99
70851;DHT22;58475;49.662;9.636;2022-11-30T02:46:19;5.71;99.99
70851;DHT22;58475;49.662;9.636;2022-11-30T02:51:32;5.75;99.80
70851;DHT22;58475;49.662;9.636;2022-11-30T02:53:59;5.81;99.68
70851;DHT22;58475;49.662;9.636;2022-11-30T02:56:25;5.86;99.42
70851;DHT22;58475;49.662;9.636;2022-11-30T02:58:51;5.81;99.61
70851;DHT22;58475;49.662;9.636;2022-11-30T03:01:16;5.79;99.71
70851;DHT22;58475;49.662;9.636;2022-11-30T03:03:42;5.91;99.67
70851;DHT22;58475;49.662;9.636;2022-11-30T03:06:09;5.88;99.17
70851;DHT22;58475;49.662;9.636;2022-11-30T03:08:34;5.86;99.13
70851;DHT22;58475;49.662;9.636;2022-11-30T03:11:01;5.82;99.47
70851;DHT22;58475;49.662;9.636;2022-11-30T03:13:29;5.83;99.24
70851;DHT22;58475;49.662;9.636;2022-11-30T03:15:55;5.86;99.34
70851;DHT22;58475;49.662;9.636;2022-11-30T03:18:23;5.91;98.75
70851;DHT22;58475;49.662;9.636;2022-11-30T03:20:49;5.83;99.08
70851;DHT22;58475;49.662;9.636;2022-11-30T03:23:15;5.78;99.51
70851;DHT22;58475;49.662;9.636;2022-11-30T03:25:40;5.74;99.74
70851;DHT22;58475;49.662;9.636;2022-11-30T03:28:06;5.75;99.64
70851;DHT22;58475;49.662;9.636;2022-11-30T03:30:31;5.69;99.87
70851;DHT22;58475;49.662;9.636;2022-11-30T03:32:57;5.76;99.71
70851;DHT22;58475;49.662;9.636;2022-11-30T03:35:23;5.76;99.89
70851;DHT22;58475;49.662;9.636;2022-11-30T03:37:48;5.76;99.74
70851;DHT22;58475;49.662;9.636;2022-11-30T03:40:14;5.69;99.99
70851;DHT22;58475;49.662;9.636;2022-11-30T03:42:39;5.69;99.99
70851;DHT22;58475;49.662;9.636;2022-11-30T03:45:05;5.74;99.99
70851;DHT22;58475;49.662;9.636;2022-11-30T03:47:31;5.69;99.99
70851;DHT22;58475;49.662;9.636;2022-11-30T03:49:57;5.74;99.99
70851;DHT22;58475;49.662;9.636;2022-11-30T03:52:22;5.69;99.99
70851;DHT22;58475;49.662;9.636;2022-11-30T03:54:48;5.71;99.99
70851;DHT22;58475;49.662;9.636;2022-11-30T03:57:13;5.68;99.99
70851;DHT22;58475;49.662;9.636;2022-11-30T03:59:39;5.82;99.99
70851;DHT22;58475;49.662;9.636;2022-11-30T04:02:04;5.75;99.99
70851;DHT22;58475;49.662;9.636;2022-11-30T04:04:30;5.82;99.99
70851;DHT22;58475;49.662;9.636;2022-11-30T04:06:55;5.72;99.99
70851;DHT22;58475;49.662;9.636;2022-11-30T04:09:21;5.69;99.99
70851;DHT22;58475;49.662;9.636;2022-11-30T04:11:46;5.75;99.99
70851;DHT22;58475;49.662;9.636;2022-11-30T04:14:12;5.71;99.99
70851;DHT22;58475;49.662;9.636;2022-11-30T04:16:37;5.72;99.99
70851;DHT22;58475;49.662;9.636;2022-11-30T04:19:03;5.72;99.99
70851;DHT22;58475;49.662;9.636;2022-11-30T04:21:29;5.71;99.99
70851;DHT22;58475;49.662;9.636;2022-11-30T04:23:54;5.75;99.99
70851;DHT22;58475;49.662;9.636;2022-11-30T04:26:20;5.72;99.99
70851;DHT22;58475;49.662;9.636;2022-11-30T04:28:45;5.71;99.99
70851;DHT22;58475;49.662;9.636;2022-11-30T04:31:11;5.79;99.77
70851;DHT22;58475;49.662;9.636;2022-11-30T04:33:37;5.85;99.64
70851;DHT22;58475;49.662;9.636;2022-11-30T04:36:04;5.78;99.87
70851;DHT22;58475;49.662;9.636;2022-11-30T04:38:31;5.72;99.89
70851;DHT22;58475;49.662;9.636;2022-11-30T04:40:57;5.69;99.99
70851;DHT22;58475;49.662;9.636;2022-11-30T04:43:23;5.71;99.93
70851;DHT22;58475;49.662;9.636;2022-11-30T04:45:49;5.69;99.99
70851;DHT22;58475;49.662;9.636;2022-11-30T04:48:15;5.66;99.88
70851;DHT22;58475;49.662;9.636;2022-11-30T04:50:41;5.71;99.99
70851;DHT22;58475;49.662;9.636;2022-11-30T04:53:07;5.75;99.99
70851;DHT22;58475;49.662;9.636;2022-11-30T04:55:35;5.78;99.77
70851;DHT22;58475;49.662;9.636;2022-11-30T04:58:01;5.71;99.94
70851;DHT22;58475;49.662;9.636;2022-11-30T05:00:26;5.66;99.99
70851;DHT22;58475;49.662;9.636;2022-11-30T05:02:54;5.68;99.94
70851;DHT22;58475;49.662;9.636;2022-11-30T05:05:20;5.72;99.99
70851;DHT22;58475;49.662;9.636;2022-11-30T05:07:49;5.72;99.99
70851;DHT22;58475;49.662;9.636;2022-11-30T05:10:15;5.74;99.99
70851;DHT22;58475;49.662;9.636;2022-11-30T05:12:41;5.72;99.99
70851;DHT22;58475;49.662;9.636;2022-11-30T05:15:07;5.75;99.99
70851;DHT22;58475;49.662;9.636;2022-11-30T05:17:33;5.79;99.95
70851;DHT22;58475;49.662;9.636;2022-11-30T05:19:58;5.74;99.97
70851;DHT22;58475;49.662;9.636;2022-11-30T05:22:24;5.74;99.99
70851;DHT22;58475;49.662;9.636;2022-11-30T05:24:49;5.76;99.99
70851;DHT22;58475;49.662;9.636;2022-11-30T05:27:15;5.72;99.99
70851;DHT22;58475;49.662;9.636;2022-11-30T05:29:40;5.75;99.99
70851;DHT22;58475;49.662;9.636;2022-11-30T05:32:06;5.75;99.99
70851;DHT22;58475;49.662;9.636;2022-11-30T05:34:31;5.75;99.99
70851;DHT22;58475;49.662;9.636;2022-11-30T05:36:57;5.72;99.99
70851;DHT22;58475;49.662;9.636;2022-11-30T05:39:22;5.76;99.99
70851;DHT22;58475;49.662;9.636;2022-11-30T05:41:48;5.78;99.93
70851;DHT22;58475;49.662;9.636;2022-11-30T05:44:14;5.78;99.99
70851;DHT22;58475;49.662;9.636;2022-11-30T05:46:39;5.75;99.99
70851;DHT22;58475;49.662;9.636;2022-11-30T05:49:04;5.76;99.99
70851;DHT22;58475;49.662;9.636;2022-11-30T05:51:30;5.78;99.99
70851;DHT22;58475;49.662;9.636;2022-11-30T05:53:57;5.76;99.99
70851;DHT22;58475;49.662;9.636;2022-11-30T05:56:23;5.75;99.99
70851;DHT22;58475;49.662;9.636;2022-11-30T05:58:48;5.71;99.99
70851;DHT22;58475;49.662;9.636;2022-11-30T06:01:25;5.78;99.99
70851;DHT22;58475;49.662;9.636;2022-11-30T06:03:52;5.76;99.99
70851;DHT22;58475;49.662;9.636;2022-11-30T06:06:18;5.75;99.99
70851;DHT22;58475;49.662;9.636;2022-11-30T06:08:45;5.76;99.99
70851;DHT22;58475;49.662;9.636;2022-11-30T06:11:11;5.76;99.99
70851;DHT22;58475;49.662;9.636;2022-11-30T06:13:38;5.76;99.99
70851;DHT22;58475;49.662;9.636;2022-11-30T06:16:04;5.76;99.99
70851;DHT22;58475;49.662;9.636;2022-11-30T06:18:30;5.81;99.99
70851;DHT22;58475;49.662;9.636;2022-11-30T06:21:00;5.79;99.65
70851;DHT22;58475;49.662;9.636;2022-11-30T06:23:26;5.79;99.99
70851;DHT22;58475;49.662;9.636;2022-11-30T06:25:52;5.79;99.99
70851;DHT22;58475;49.662;9.636;2022-11-30T06:28:17;5.82;99.81
70851;DHT22;58475;49.662;9.636;2022-11-30T06:30:43;5.78;99.99
70851;DHT22;58475;49.662;9.636;2022-11-30T06:33:08;5.81;99.99
70851;DHT22;58475;49.662;9.636;2022-11-30T06:35:34;5.81;99.99
70851;DHT22;58475;49.662;9.636;2022-11-30T06:37:59;5.78;99.99
70851;DHT22;58475;49.662;9.636;2022-11-30T06:40:25;5.82;99.99
70851;DHT22;58475;49.662;9.636;2022-11-30T06:42:52;5.82;99.99
70851;DHT22;58475;49.662;9.636;2022-11-30T06:45:18;5.81;99.99
70851;DHT22;58475;49.662;9.636;2022-11-30T06:47:44;5.78;99.99
70851;DHT22;58475;49.662;9.636;2022-11-30T06:50:11;5.79;99.99
70851;DHT22;58475;49.662;9.636;2022-11-30T06:52:37;5.81;99.98
70851;DHT22;58475;49.662;9.636;2022-11-30T06:55:02;5.82;99.95
70851;DHT22;58475;49.662;9.636;2022-11-30T06:57:29;5.78;99.99
70851;DHT22;58475;49.662;9.636;2022-11-30T06:59:55;5.76;99.99
70851;DHT22;58475;49.662;9.636;2022-11-30T07:02:20;5.81;99.99
70851;DHT22;58475;49.662;9.636;2022-11-30T07:04:46;5.82;99.99
70851;DHT22;58475;49.662;9.636;2022-11-30T07:07:11;5.89;99.85
70851;DHT22;58475;49.662;9.636;2022-11-30T07:09:37;5.95;99.64
70851;DHT22;58475;49.662;9.636;2022-11-30T07:12:03;5.95;99.61
70851;DHT22;58475;49.662;9.636;2022-11-30T07:14:28;5.91;99.90
70851;DHT22;58475;49.662;9.636;2022-11-30T07:16:55;5.89;99.69
70851;DHT22;58475;49.662;9.636;2022-11-30T07:19:21;5.98;99.52
70851;DHT22;58475;49.662;9.636;2022-11-30T07:21:47;5.99;99.46
70851;DHT22;58475;49.662;9.636;2022-11-30T07:24:12;5.96;99.24
70851;DHT22;58475;49.662;9.636;2022-11-30T07:27:01;6.06;99.27
70851;DHT22;58475;49.662;9.636;2022-11-30T07:29:27;6.07;99.17
70851;DHT22;58475;49.662;9.636;2022-11-30T07:31:53;6.17;98.86
70851;DHT22;58475;49.662;9.636;2022-11-30T07:34:19;6.05;98.98
70851;DHT22;58475;49.662;9.636;2022-11-30T07:36:46;6.02;99.06
70851;DHT22;58475;49.662;9.636;2022-11-30T07:39:12;6.03;99.24
70851;DHT22;58475;49.662;9.636;2022-11-30T07:41:38;5.96;99.25
70851;DHT22;58475;49.662;9.636;2022-11-30T07:44:05;5.92;99.25
70851;DHT22;58475;49.662;9.636;2022-11-30T07:46:32;5.99;99.24
70851;DHT22;58475;49.662;9.636;2022-11-30T07:49:01;5.98;99.49
70851;DHT22;58475;49.662;9.636;2022-11-30T07:51:26;5.95;99.75
70851;DHT22;58475;49.662;9.636;2022-11-30T07:53:55;5.93;99.85
70851;DHT22;58475;49.662;9.636;2022-11-30T07:56:21;5.95;99.91
70851;DHT22;58475;49.662;9.636;2022-11-30T07:58:48;5.99;99.71
70851;DHT22;58475;49.662;9.636;2022-11-30T08:01:16;5.96;99.79
70851;DHT22;58475;49.662;9.636;2022-11-30T08:03:42;5.99;99.62
70851;DHT22;58475;49.662;9.636;2022-11-30T08:06:10;6.01;99.57
70851;DHT22;58475;49.662;9.636;2022-11-30T08:08:38;6.02;99.71
70851;DHT22;58475;49.662;9.636;2022-11-30T08:11:06;6.02;99.65
70851;DHT22;58475;49.662;9.636;2022-11-30T08:13:32;6.13;99.21
70851;DHT22;58475;49.662;9.636;2022-11-30T08:16:03;6.17;98.93
70851;DHT22;58475;49.662;9.636;2022-11-30T08:18:29;6.23;98.81
70851;DHT22;58475;49.662;9.636;2022-11-30T08:20:59;6.14;99.08
70851;DHT22;58475;49.662;9.636;2022-11-30T08:23:34;6.06;99.34
70851;DHT22;58475;49.662;9.636;2022-11-30T08:26:04;6.07;99.50
70851;DHT22;58475;49.662;9.636;2022-11-30T08:28:44;6.10;99.38
70851;DHT22;58475;49.662;9.636;2022-11-30T08:31:21;6.13;99.36
70851;DHT22;58475;49.662;9.636;2022-11-30T08:33:47;6.22;99.34
70851;DHT22;58475;49.662;9.636;2022-11-30T08:36:15;6.20;99.22
70851;DHT22;58475;49.662;9.636;2022-11-30T08:38:42;6.22;99.37
70851;DHT22;58475;49.662;9.636;2022-11-30T08:41:10;6.24;99.03
70851;DHT22;58475;49.662;9.636;2022-11-30T08:43:37;6.26;99.18
70851;DHT22;58475;49.662;9.636;2022-11-30T08:46:04;6.24;98.68
70851;DHT22;58475;49.662;9.636;2022-11-30T08:48:40;6.29;98.66
70851;DHT22;58475;49.662;9.636;2022-11-30T08:51:13;6.30;98.78
70851;DHT22;58475;49.662;9.636;2022-11-30T08:53:40;6.33;98.81
70851;DHT22;58475;49.662;9.636;2022-11-30T08:56:15;6.33;98.80
70851;DHT22;58475;49.662;9.636;2022-11-30T08:58:42;6.34;98.87
70851;DHT22;58475;49.662;9.636;2022-11-30T09:03:38;6.44;98.62
70851;DHT22;58475;49.662;9.636;2022-11-30T09:06:18;6.45;98.86
70851;DHT22;58475;49.662;9.636;2022-11-30T09:08:46;6.48;98.49
70851;DHT22;58475;49.662;9.636;2022-11-30T09:11:31;6.48;98.50
70851;DHT22;58475;49.662;9.636;2022-11-30T09:14:03;6.47;98.37
70851;DHT22;58475;49.662;9.636;2022-11-30T09:16:30;6.44;98.35
70851;DHT22;58475;49.662;9.636;2022-11-30T09:18:55;6.51;97.86
70851;DHT22;58475;49.662;9.636;2022-11-30T09:21:22;6.44;98.31
70851;DHT22;58475;49.662;9.636;2022-11-30T09:23:49;6.43;98.51
70851;DHT22;58475;49.662;9.636;2022-11-30T09:26:17;6.45;98.53
70851;DHT22;58475;49.662;9.636;2022-11-30T09:28:44;6.43;98.51
70851;DHT22;58475;49.662;9.636;2022-11-30T09:31:18;6.45;98.25
70851;DHT22;58475;49.662;9.636;2022-11-30T09:33:44;6.41;98.14
70851;DHT22;58475;49.662;9.636;2022-11-30T09:36:12;6.47;98.49
70851;DHT22;58475;49.662;9.636;2022-11-30T09:38:38;6.50;97.32
70851;DHT22;58475;49.662;9.636;2022-11-30T09:44:13;6.43;96.38
70851;DHT22;58475;49.662;9.636;2022-11-30T09:49:34;6.38;96.53
70851;DHT22;58475;49.662;9.636;2022-11-30T09:52:02;6.41;96.03
70851;DHT22;58475;49.662;9.636;2022-11-30T09:54:36;6.50;96.09
70851;DHT22;58475;49.662;9.636;2022-11-30T09:59:53;6.44;95.83
70851;DHT22;58475;49.662;9.636;2022-11-30T10:02:20;6.38;96.50
70851;DHT22;58475;49.662;9.636;2022-11-30T10:04:48;6.44;96.90
70851;DHT22;58475;49.662;9.636;2022-11-30T10:10:27;6.48;96.74
70851;DHT22;58475;49.662;9.636;2022-11-30T10:13:14;6.51;95.80
70851;DHT22;58475;49.662;9.636;2022-11-30T10:30:00;6.85;95.50
70851;DHT22;58475;49.662;9.636;2022-11-30T10:32:32;7.05;94.66
70851;DHT22;58475;49.662;9.636;2022-11-30T10:38:13;7.18;94.38
70851;DHT22;58475;49.662;9.636;2022-11-30T10:43:35;7.23;94.77
70851;DHT22;58475;49.662;9.636;2022-11-30T10:46:17;7.23;93.88
70851;DHT22;58475;49.662;9.636;2022-11-30T10:48:48;7.20;94.45
70851;DHT22;58475;49.662;9.636;2022-11-30T10:51:16;7.09;93.40
70851;DHT22;58475;49.662;9.636;2022-11-30T10:53:41;7.11;94.33
70851;DHT22;58475;49.662;9.636;2022-11-30T10:56:10;7.06;94.30
70851;DHT22;58475;49.662;9.636;2022-11-30T10:58:59;7.11;94.67
70851;DHT22;58475;49.662;9.636;2022-11-30T11:06:55;6.89;94.54
70851;DHT22;58475;49.662;9.636;2022-11-30T11:11:57;6.87;94.87
70851;DHT22;58475;49.662;9.636;2022-11-30T11:14:36;6.85;95.30
70851;DHT22;58475;49.662;9.636;2022-11-30T11:19:46;6.81;94.60
70851;DHT22;58475;49.662;9.636;2022-11-30T11:24:37;6.82;95.69
70851;DHT22;58475;49.662;9.636;2022-11-30T11:27:03;6.81;95.54
70851;DHT22;58475;49.662;9.636;2022-11-30T11:29:34;6.77;95.09
70851;DHT22;58475;49.662;9.636;2022-11-30T11:32:23;6.68;95.11
70851;DHT22;58475;49.662;9.636;2022-11-30T11:34:52;6.75;95.51
70851;DHT22;58475;49.662;9.636;2022-11-30T11:37:19;6.74;95.66
70851;DHT22;58475;49.662;9.636;2022-11-30T11:42:27;6.60;95.14
70851;DHT22;58475;49.662;9.636;2022-11-30T11:44:58;6.55;95.05
70851;DHT22;58475;49.662;9.636;2022-11-30T11:50:34;6.47;95.68
70851;DHT22;58475;49.662;9.636;2022-11-30T11:53:23;6.45;95.79
70851;DHT22;58475;49.662;9.636;2022-11-30T11:56:03;6.44;95.73
70851;DHT22;58475;49.662;9.636;2022-11-30T11:59:22;6.44;96.24
70851;DHT22;58475;49.662;9.636;2022-11-30T12:07:08;6.43;95.78
70851;DHT22;58475;49.662;9.636;2022-11-30T12:09:39;6.53;94.87
70851;DHT22;58475;49.662;9.636;2022-11-30T12:12:10;6.55;94.85
70851;DHT22;58475;49.662;9.636;2022-11-30T12:14:40;6.54;94.43
70851;DHT22;58475;49.662;9.636;2022-11-30T12:17:22;6.61;93.16
70851;DHT22;58475;49.662;9.636;2022-11-30T12:25:27;6.51;91.53
70851;DHT22;58475;49.662;9.636;2022-11-30T12:28:36;6.53;93.76
70851;DHT22;58475;49.662;9.636;2022-11-30T12:31:12;6.55;92.56
70851;DHT22;58475;49.662;9.636;2022-11-30T12:38:57;6.45;92.02
70851;DHT22;58475;49.662;9.636;2022-11-30T12:44:54;6.48;93.08
70851;DHT22;58475;49.662;9.636;2022-11-30T13:00:20;6.60;92.96
70851;DHT22;58475;49.662;9.636;2022-11-30T13:05:44;6.65;93.16
70851;DHT22;58475;49.662;9.636;2022-11-30T13:08:20;6.73;92.76
70851;DHT22;58475;49.662;9.636;2022-11-30T13:10:53;6.70;93.11
70851;DHT22;58475;49.662;9.636;2022-11-30T13:13:24;6.70;92.32
70851;DHT22;58475;49.662;9.636;2022-11-30T13:15:52;6.63;92.04
70851;DHT22;58475;49.662;9.636;2022-11-30T13:18:22;6.64;92.08
70851;DHT22;58475;49.662;9.636;2022-11-30T13:21:15;6.57;92.32
70851;DHT22;58475;49.662;9.636;2022-11-30T13:23:54;6.64;92.48
70851;DHT22;58475;49.662;9.636;2022-11-30T13:26:30;6.67;93.44
70851;DHT22;58475;49.662;9.636;2022-11-30T13:29:19;6.63;93.31
70851;DHT22;58475;49.662;9.636;2022-11-30T13:32:14;6.65;93.22
70851;DHT22;58475;49.662;9.636;2022-11-30T13:34:40;6.77;92.21
70851;DHT22;58475;49.662;9.636;2022-11-30T13:37:17;6.64;92.48
70851;DHT22;58475;49.662;9.636;2022-11-30T13:39:46;6.60;93.66
70851;DHT22;58475;49.662;9.636;2022-11-30T13:42:34;6.61;93.60
70851;DHT22;58475;49.662;9.636;2022-11-30T13:45:16;6.60;93.43
70851;DHT22;58475;49.662;9.636;2022-11-30T13:47:48;6.60;93.17
70851;DHT22;58475;49.662;9.636;2022-11-30T13:50:35;6.53;93.03
70851;DHT22;58475;49.662;9.636;2022-11-30T13:58:17;6.54;93.07
70851;DHT22;58475;49.662;9.636;2022-11-30T14:03:29;6.50;92.47
70851;DHT22;58475;49.662;9.636;2022-11-30T14:10:02;6.45;93.58
70851;DHT22;58475;49.662;9.636;2022-11-30T14:15:00;6.37;92.77
70851;DHT22;58475;49.662;9.636;2022-11-30T14:17:28;6.37;92.63
70851;DHT22;58475;49.662;9.636;2022-11-30T14:19:59;6.40;92.88
70851;DHT22;58475;49.662;9.636;2022-11-30T14:22:27;6.40;91.86
70851;DHT22;58475;49.662;9.636;2022-11-30T14:24:54;6.38;91.96
70851;DHT22;58475;49.662;9.636;2022-11-30T14:27:23;6.34;91.68
70851;DHT22;58475;49.662;9.636;2022-11-30T14:29:52;6.36;92.26
70851;DHT22;58475;49.662;9.636;2022-11-30T14:34:59;6.24;93.13
70851;DHT22;58475;49.662;9.636;2022-11-30T14:37:34;6.33;93.25
70851;DHT22;58475;49.662;9.636;2022-11-30T14:40:04;6.32;93.19
70851;DHT22;58475;49.662;9.636;2022-11-30T14:42:32;6.32;93.50
70851;DHT22;58475;49.662;9.636;2022-11-30T14:44:58;6.29;93.39
70851;DHT22;58475;49.662;9.636;2022-11-30T14:47:33;6.30;93.69
70851;DHT22;58475;49.662;9.636;2022-11-30T14:50:00;6.30;93.47
70851;DHT22;58475;49.662;9.636;2022-11-30T15:00:46;6.17;94.18
70851;DHT22;58475;49.662;9.636;2022-11-30T15:03:26;6.12;94.72
70851;DHT22;58475;49.662;9.636;2022-11-30T15:05:58;6.14;94.73
70851;DHT22;58475;49.662;9.636;2022-11-30T15:08:32;6.20;93.97
70851;DHT22;58475;49.662;9.636;2022-11-30T15:11:05;6.13;94.48
70851;DHT22;58475;49.662;9.636;2022-11-30T15:13:32;6.14;94.15
70851;DHT22;58475;49.662;9.636;2022-11-30T15:16:08;6.17;93.95
70851;DHT22;58475;49.662;9.636;2022-11-30T15:18:38;6.16;93.93
70851;DHT22;58475;49.662;9.636;2022-11-30T15:21:13;6.13;94.27
70851;DHT22;58475;49.662;9.636;2022-11-30T15:23:42;6.14;94.64
70851;DHT22;58475;49.662;9.636;2022-11-30T15:26:18;6.06;95.04
70851;DHT22;58475;49.662;9.636;2022-11-30T15:29:21;6.07;94.88
70851;DHT22;58475;49.662;9.636;2022-11-30T15:31:45;6.07;94.67
70851;DHT22;58475;49.662;9.636;2022-11-30T15:34:25;6.02;95.37
70851;DHT22;58475;49.662;9.636;2022-11-30T15:36:55;5.99;95.43
70851;DHT22;58475;49.662;9.636;2022-11-30T15:39:23;5.96;95.88
70851;DHT22;58475;49.662;9.636;2022-11-30T15:41:57;5.98;94.92
70851;DHT22;58475;49.662;9.636;2022-11-30T15:47:01;5.95;95.12
70851;DHT22;58475;49.662;9.636;2022-11-30T15:49:29;5.95;95.23
70851;DHT22;58475;49.662;9.636;2022-11-30T15:57:17;5.96;95.32
70851;DHT22;58475;49.662;9.636;2022-11-30T16:00:00;5.92;95.10
70851;DHT22;58475;49.662;9.636;2022-11-30T16:02:34;5.96;93.88
70851;DHT22;58475;49.662;9.636;2022-11-30T16:05:21;6.02;93.52
70851;DHT22;58475;49.662;9.636;2022-11-30T16:07:55;5.96;93.74
70851;DHT22;58475;49.662;9.636;2022-11-30T16:10:41;5.92;94.30
70851;DHT22;58475;49.662;9.636;2022-11-30T16:13:14;5.88;94.02
70851;DHT22;58475;49.662;9.636;2022-11-30T16:15:46;5.83;94.08
70851;DHT22;58475;49.662;9.636;2022-11-30T16:18:14;5.81;93.42
70851;DHT22;58475;49.662;9.636;2022-11-30T16:20:41;5.76;92.63
70851;DHT22;58475;49.662;9.636;2022-11-30T16:23:10;5.78;92.99
70851;DHT22;58475;49.662;9.636;2022-11-30T16:25:38;5.68;93.49
70851;DHT22;58475;49.662;9.636;2022-11-30T16:28:04;5.71;93.64
70851;DHT22;58475;49.662;9.636;2022-11-30T16:30:29;5.69;93.43
70851;DHT22;58475;49.662;9.636;2022-11-30T16:32:56;5.61;93.65
70851;DHT22;58475;49.662;9.636;2022-11-30T16:35:35;5.58;93.71
70851;DHT22;58475;49.662;9.636;2022-11-30T16:38:02;5.64;93.54
70851;DHT22;58475;49.662;9.636;2022-11-30T16:40:27;5.59;93.28
70851;DHT22;58475;49.662;9.636;2022-11-30T16:42:53;5.62;93.12
70851;DHT22;58475;49.662;9.636;2022-11-30T16:45:21;5.61;93.15
70851;DHT22;58475;49.662;9.636;2022-11-30T16:47:46;5.62;92.43
70851;DHT22;58475;49.662;9.636;2022-11-30T16:50:13;5.61;92.62
70851;DHT22;58475;49.662;9.636;2022-11-30T16:52:39;5.56;92.66
70851;DHT22;58475;49.662;9.636;2022-11-30T16:55:20;5.50;93.18
70851;DHT22;58475;49.662;9.636;2022-11-30T16:57:47;5.48;92.98
70851;DHT22;58475;49.662;9.636;2022-11-30T17:00:16;5.48;93.38
70851;DHT22;58475;49.662;9.636;2022-11-30T17:05:43;5.48;93.39
70851;DHT22;58475;49.662;9.636;2022-11-30T17:08:09;5.54;92.17
70851;DHT22;58475;49.662;9.636;2022-11-30T17:10:36;5.44;93.37
70851;DHT22;58475;49.662;9.636;2022-11-30T17:13:02;5.40;93.47
70851;DHT22;58475;49.662;9.636;2022-11-30T17:15:28;5.37;93.53
70851;DHT22;58475;49.662;9.636;2022-11-30T17:17:53;5.35;94.04
70851;DHT22;58475;49.662;9.636;2022-11-30T17:20:23;5.33;93.35
70851;DHT22;58475;49.662;9.636;2022-11-30T17:22:49;5.31;93.86
70851;DHT22;58475;49.662;9.636;2022-11-30T17:25:18;5.23;94.02
70851;DHT22;58475;49.662;9.636;2022-11-30T17:27:44;5.24;94.02
70851;DHT22;58475;49.662;9.636;2022-11-30T17:30:12;5.27;94.06
70851;DHT22;58475;49.662;9.636;2022-11-30T17:32:37;5.23;94.36
70851;DHT22;58475;49.662;9.636;2022-11-30T17:35:03;5.27;94.24
70851;DHT22;58475;49.662;9.636;2022-11-30T17:37:28;5.19;93.63
70851;DHT22;58475;49.662;9.636;2022-11-30T17:39:54;5.20;93.72
70851;DHT22;58475;49.662;9.636;2022-11-30T17:42:19;5.19;94.01
70851;DHT22;58475;49.662;9.636;2022-11-30T17:44:45;5.20;93.80
70851;DHT22;58475;49.662;9.636;2022-11-30T17:47:11;5.22;94.02
70851;DHT22;58475;49.662;9.636;2022-11-30T17:49:36;5.14;93.44
70851;DHT22;58475;49.662;9.636;2022-11-30T17:52:02;5.06;93.69
70851;DHT22;58475;49.662;9.636;2022-11-30T17:54:27;5.00;93.91
70851;DHT22;58475;49.662;9.636;2022-11-30T17:56:52;4.97;93.58
70851;DHT22;58475;49.662;9.636;2022-11-30T17:59:20;4.93;93.72
70851;DHT22;58475;49.662;9.636;2022-11-30T18:01:45;4.89;93.94
70851;DHT22;58475;49.662;9.636;2022-11-30T18:04:11;4.89;93.36
70851;DHT22;58475;49.662;9.636;2022-11-30T18:06:37;4.92;93.00
70851;DHT22;58475;49.662;9.636;2022-11-30T18:09:03;4.94;93.32
70851;DHT22;58475;49.662;9.636;2022-11-30T18:11:28;4.86;92.45
70851;DHT22;58475;49.662;9.636;2022-11-30T18:13:54;4.82;93.40
70851;DHT22;58475;49.662;9.636;2022-11-30T18:16:26;4.85;92.31
70851;DHT22;58475;49.662;9.636;2022-11-30T18:18:52;4.77;92.39
70851;DHT22;58475;49.662;9.636;2022-11-30T18:21:20;4.77;92.89
70851;DHT22;58475;49.662;9.636;2022-11-30T18:23:47;4.75;92.71